• Join FlightAware (Why Join?)
  • Login
  • US Flag 
01:12PM EDT


 

Airport Tracker/Info


-or-


 

Live Flight TrackerFlight Track Log ✈ SWA267 ✈ 26-Apr-2013 ✈ KMCO - KORF

Flight Track Log - Related Links

Times and Time Zones

All times are in EDT time to prevent confusion due to time zone crossing. See the SWA267 flight status page for this flight to view local times or setup timezone preferences in your user account.

Time Position Orientation Groundspeed Altitude Reporting Facility
EDT Latitude Longitude Course Direction KTS MPH feet Rate Location/Type
10:04AM 28.4000 -81.3000 139° Southeast 174 200 500  Level Orlando TRACON
10:05AM 28.3667 -81.2667 139° Southeast 232 267 2,200 2,340 Climbing Orlando TRACON
10:06AM 28.3333 -81.2167 127° Southeast 222 255 4,800 2,340 Climbing Orlando TRACON
10:07AM 28.4375 -81.2258 356° North 267 307 8,300 2,340 Climbing Jacksonville Center
10:08AM 28.5150 -81.2458 347° North 278 320 11,000 2,460 Climbing Jacksonville Center
10:09AM 28.6047 -81.2561 354° North 299 344 13,300 2,280 Climbing Jacksonville Center
10:10AM 28.6989 -81.2714 352° North 324 373 15,600 2,100 Climbing Jacksonville Center
10:11AM 28.7994 -81.2861 353° North 339 390 17,600 1,740 Climbing Jacksonville Center
10:12AM 28.9039 -81.3011 353° North 364 419 19,100 1,560 Climbing Jacksonville Center
10:13AM 29.0167 -81.3161 353° North 381 438 20,800 1,860 Climbing Jacksonville Center
10:14AM 29.1256 -81.3333 352° North 392 451 22,900 1,680 Climbing Jacksonville Center
10:15AM 29.2383 -81.3481 354° North 399 459 24,200 1,260 Climbing Jacksonville Center
10:16AM 29.3556 -81.3653 353° North 416 479 25,500 1,500 Climbing Jacksonville Center
10:17AM 29.4747 -81.3825 353° North 422 486 27,300 1,500 Climbing Jacksonville Center
10:18AM 29.6003 -81.4044 351° North 422 486 28,500 1,380 Climbing Jacksonville Center
10:19AM 29.7194 -81.4219 353° North 422 486 30,100 1,560 Climbing Jacksonville Center
10:20AM 29.8322 -81.4369 353° North 422 486 31,700 1,320 Climbing Jacksonville Center
10:21AM 29.9431 -81.4544 352° North 415 478 32,800 1,020 Climbing Jacksonville Center
10:22AM 30.0539 -81.4694 353° North 410 472 33,800 1,020 Climbing Jacksonville Center
10:23AM 30.1522 -81.4825 353° North 405 466 34,900 600 Climbing Jacksonville Center
10:24AM 30.2631 -81.5000 352° North 405 466 35,000  Climbing Jacksonville Center
10:25AM 30.3697 -81.5058 357° North 399 459 35,000  Level Jacksonville Center
10:26AM 30.4803 -81.4969 North 388 447 35,000  Level Jacksonville Center
10:27AM 30.5908 -81.4906 North 388 447 35,000  Level Jacksonville Center
10:28AM 30.7014 -81.4817 North 388 447 35,000  Level Jacksonville Center
10:29AM 30.8139 -81.4728 North 393 452 35,000  Level Jacksonville Center
10:30AM 30.9267 -81.4636 North 399 459 35,000  Level Jacksonville Center
10:31AM 31.0392 -81.4547 North 404 465 35,000  Level Jacksonville Center
10:32AM 31.1539 -81.4456 North 404 465 35,000  Level Jacksonville Center
10:33AM 31.2667 -81.4319 North 404 465 35,000  Level Jacksonville Center
10:34AM 31.3700 -81.3572 32° Northeast 410 472 35,000  Level Jacksonville Center
10:35AM 31.4775 -81.2628 37° Northeast 439 505 35,000  Level Jacksonville Center
10:36AM 31.5767 -81.1758 37° Northeast 447 514 35,000  Level Jacksonville Center
10:37AM 31.6675 -81.0983 36° Northeast 441 507 35,000  Level Jacksonville Center
10:38AM 31.7767 -81.0011 37° Northeast 441 507 35,000  Level Jacksonville Center
10:39AM 31.8653 -80.9208 38° Northeast 447 514 35,000  Level Jacksonville Center
10:40AM 31.9742 -80.8256 37° Northeast 447 514 35,000  Level Jacksonville Center
10:41AM 32.0731 -80.7400 36° Northeast 442 509 35,000  Level Jacksonville Center
10:42AM 32.1594 -80.6569 39° Northeast 442 509 35,000  Level Jacksonville Center
10:43AM 32.2581 -80.5686 37° Northeast 442 509 35,000  Level Jacksonville Center
10:44AM 32.3544 -80.4825 37° Northeast 442 509 35,000  Level Jacksonville Center
10:45AM 32.4531 -80.3936 37° Northeast 437 503 35,000  Level Jacksonville Center
10:46AM 32.5472 -80.3072 38° Northeast 432 497 35,000  Level Jacksonville Center
10:47AM 32.6436 -80.2183 38° Northeast 432 497 35,000  Level Jacksonville Center
10:48AM 32.7478 -80.1214 38° Northeast 432 497 35,000  Level Jacksonville Center
10:49AM 32.8461 -80.0342 37° Northeast 432 497 35,000  Level Jacksonville Center
10:50AM 32.9400 -79.9447 39° Northeast 432 497 35,000  Level Jacksonville Center
10:51AM 33.0361 -79.8572 37° Northeast 432 497 35,000 -360 Level Jacksonville Center
10:52AM 33.1342 -79.7694 37° Northeast 432 497 34,300 -780 Descending Jacksonville Center
10:53AM 33.2281 -79.6819 38° Northeast 432 497 33,500 -660 Descending Jacksonville Center
10:54AM 33.3217 -79.5964 37° Northeast 427 491 33,000 -300 Descending Jacksonville Center
10:55AM 33.4153 -79.5058 39° Northeast 427 491 33,000  Level Jacksonville Center
10:56AM 33.5089 -79.4153 39° Northeast 433 498 33,000  Level Jacksonville Center
10:57AM 33.6067 -79.3267 37° Northeast 433 498 33,000  Level Jacksonville Center
10:59AM 33.7483 -79.1931 38° Northeast 403 464 33,000  Level Washington Center
11:00AM 33.8450 -79.1022 38° Northeast 413 475 33,000  Level Washington Center
11:01AM 33.9394 -79.0111 39° Northeast 427 491 33,000  Level Washington Center
11:02AM 34.0358 -78.9197 38° Northeast 432 497 33,000  Level Washington Center
11:03AM 34.1303 -78.8283 39° Northeast 432 497 33,000  Level Washington Center
11:04AM 34.2244 -78.7314 40° Northeast 432 497 33,000  Level Washington Center
11:05AM 34.3208 -78.6369 39° Northeast 437 503 33,000  Level Washington Center
11:06AM 34.4172 -78.5425 39° Northeast 437 503 33,000  Level Washington Center
11:07AM 34.5133 -78.4425 41° Northeast 437 503 33,000  Level Washington Center
11:08AM 34.6094 -78.3475 39° Northeast 437 503 33,000  Level Washington Center
11:09AM 34.7036 -78.2522 40° Northeast 437 503 33,000  Level Washington Center
11:10AM 34.7972 -78.1592 39° Northeast 437 503 33,000  Level Washington Center
11:11AM 34.8892 -78.0558 43° Northeast 437 503 33,000  Level Washington Center
11:12AM 34.9808 -77.9597 41° Northeast 437 503 33,000 -120 Level Washington Center
11:13AM 35.0744 -77.8633 40° Northeast 437 503 32,800 -660 Descending Washington Center
11:14AM 35.1661 -77.7694 40° Northeast 437 503 31,700 -1,020 Descending Washington Center
11:15AM 35.2575 -77.6778 39° Northeast 427 491 30,800 -960 Descending Washington Center
11:16AM 35.3467 -77.5833 41° Northeast 427 491 29,800 -1,020 Descending Washington Center
11:17AM 35.4417 -77.5067 33° Northeast 422 486 28,900 -1,020 Descending Washington Center
11:18AM 35.5408 -77.4428 28° Northeast 404 465 27,900 -2,040 Descending Washington Center
11:19AM 35.6378 -77.3758 29° Northeast 398 458 24,900 -2,520 Descending Washington Center
11:20AM 35.7347 -77.3117 28° Northeast 398 458 22,800 -1,500 Descending Washington Center
11:21AM 35.8275 -77.2469 29° Northeast 392 451 22,000 -420 Descending Washington Center
11:22AM 35.9286 -77.1797 28° Northeast 378 435 22,000  Level Washington Center
11:23AM 36.0003 -77.1272 31° Northeast 355 409 22,000 -300 Level Washington Center
11:24AM 36.0886 -77.0700 28° Northeast 343 395 21,500 -1,320 Descending Washington Center
11:25AM 36.1811 -77.0072 29° Northeast 361 415 19,500 -1,740 Descending Washington Center
11:26AM 36.2589 -76.9494 31° Northeast 343 395 18,100 -1,920 Descending Washington Center
11:27AM 36.3492 -76.8917 27° Northeast 340 391 15,600 -2,340 Descending Washington Center
11:28AM 36.4189 -76.8181 40° Northeast 339 390 13,400 -1,620 Descending Washington Center
11:29AM 36.4719 -76.7389 50° Northeast 329 379 12,400 -1,620 Descending Washington Center
11:30AM 36.5289 -76.6594 48° Northeast 310 357 10,200 -1,620 Descending Washington Center
11:31AM 36.5900 -76.6086 34° Northeast 286 329 9,200 -1,200 Descending Washington Center
11:32AM 36.6528 -76.5783 21° North 254 292 7,900 -1,620 Descending Washington Center
11:33AM 36.7136 -76.5428 25° Northeast 230 265 6,100 -1,560 Descending Washington Center
11:34AM 36.7764 -76.5150 20° North 222 255 4,600 -1,260 Descending Washington Center
11:35AM 36.7872 -76.4400 80° East 212 244 3,500 -840 Descending Washington Center
11:36AM 36.7878 -76.3622 89° East 223 257 3,000 -360 Descending Washington Center
11:37AM 36.8111 -76.3028 64° Northeast 177 204 2,800 -720 Descending Washington Center
11:38AM 36.8342 -76.2642 53° Northeast 127 146 1,600 -1,200 Descending Washington Center